Time;durP1;ratioP1;P1;durP2;ratioP2;P2;SDS_P1;SDS_P2;PMS_P1;PMS_P2;Temp;Humidity;BMP_temperature;BMP_pressure;BME280_temperature;BME280_humidity;BME280_pressure;Samples;Min_cycle;Max_cycle;Signal;HPM_P1;HPM_P2
2024/04/23 00:01:28;;;;;;;0.10;0.10;;;2.80;1.00;;;;;;5068180;28;20040;-63
2024/04/23 00:03:54;;;;;;;0.00;0.00;;;2.90;1.00;;;;;;5073068;28;20108;-62
2024/04/23 00:06:20;;;;;;;0.00;0.00;;;2.90;1.00;;;;;;5076611;28;20014;-62
2024/04/23 00:08:45;;;;;;;0.00;0.00;;;2.90;1.00;;;;;;5087018;28;20455;-63
2024/04/23 00:11:11;;;;;;;0.00;0.00;;;2.90;1.00;;;;;;5067729;28;20086;-62
2024/04/23 00:13:37;;;;;;;0.00;0.00;;;2.90;1.00;;;;;;5078857;28;20006;-62
2024/04/23 00:16:03;;;;;;;0.00;0.00;;;3.00;3.80;;;;;;5076544;28;20015;-62
2024/04/23 00:18:29;;;;;;;0.00;0.00;;;3.00;1.00;;;;;;5083451;28;20011;-62
2024/04/23 00:20:56;;;;;;;0.00;0.00;;;3.00;18.60;;;;;;5080717;28;20462;-62
2024/04/23 00:23:22;;;;;;;0.00;0.00;;;3.10;63.90;;;;;;5079804;28;20087;-63
2024/04/23 00:25:50;;;;;;;0.00;0.00;;;3.10;54.90;;;;;;5100196;28;20414;-63
2024/04/23 00:28:16;;;;;;;0.00;0.00;;;3.10;45.00;;;;;;5084395;28;20016;-62
2024/04/23 00:30:41;;;;;;;0.00;0.00;;;3.10;56.10;;;;;;5086204;28;20014;-62
2024/04/23 00:33:07;;;;;;;0.10;0.10;;;3.20;81.70;;;;;;5074910;28;20017;-62
2024/04/23 00:35:34;;;;;;;0.10;0.10;;;3.20;91.40;;;;;;5043484;28;20014;-62
2024/04/23 00:38:00;;;;;;;0.00;0.00;;;3.20;85.20;;;;;;5067423;28;20007;-62
2024/04/23 00:40:30;;;;;;;0.55;0.10;;;3.20;87.20;;;;;;5068199;28;20127;-62
2024/04/23 00:42:56;;;;;;;0.00;0.00;;;3.20;65.50;;;;;;5082287;28;20010;-62
2024/04/23 00:45:32;;;;;;;0.00;0.00;;;3.20;38.80;;;;;;5072392;28;20576;-62
2024/04/23 00:47:59;;;;;;;0.10;0.10;;;3.20;77.50;;;;;;5100216;28;20065;-62
2024/04/23 00:50:26;;;;;;;0.00;0.00;;;3.20;97.00;;;;;;5073036;28;20014;-63
2024/04/23 00:52:53;;;;;;;0.20;0.03;;;3.20;97.50;;;;;;5083199;28;20014;-62
2024/04/23 00:55:21;;;;;;;0.05;0.00;;;3.20;76.00;;;;;;5069570;28;20029;-62
2024/04/23 00:57:47;;;;;;;0.00;0.00;;;3.20;56.90;;;;;;5078868;28;20521;-62
2024/04/23 01:00:13;;;;;;;0.00;0.00;;;3.20;75.90;;;;;;5072287;28;20007;-62
2024/04/23 01:02:40;;;;;;;0.00;0.00;;;3.20;75.80;;;;;;5077952;28;20018;-62
2024/04/23 01:05:06;;;;;;;0.00;0.00;;;3.20;95.80;;;;;;5090331;28;20006;-62
2024/04/23 01:07:31;;;;;;;0.00;0.00;;;3.20;99.90;;;;;;5085983;28;20089;-62
2024/04/23 01:09:57;;;;;;;0.00;0.00;;;3.20;99.90;;;;;;5045993;28;20006;-62
2024/04/23 01:12:24;;;;;;;0.00;0.00;;;3.20;99.90;;;;;;5066988;28;20014;-63
2024/04/23 01:14:51;;;;;;;0.05;0.05;;;3.20;96.80;;;;;;5067172;28;20021;-62
2024/04/23 01:17:19;;;;;;;0.00;0.00;;;3.10;91.20;;;;;;5069522;28;20033;-62
2024/04/23 01:19:53;;;;;;;0.00;0.00;;;3.10;99.90;;;;;;5041774;28;20010;-62
2024/04/23 01:22:34;;;;;;;0.10;0.10;;;3.10;99.90;;;;;;5072267;28;20060;-62
2024/04/23 01:25:08;;;;;;;0.00;0.00;;;3.00;93.40;;;;;;5050633;28;20002;-62
2024/04/23 01:27:43;;;;;;;0.00;0.00;;;2.90;72.20;;;;;;5089286;28;20612;-62
2024/04/23 01:30:11;;;;;;;0.10;0.10;;;2.90;55.80;;;;;;5069926;28;20007;-62
2024/04/23 01:32:40;;;;;;;0.00;0.00;;;2.80;77.60;;;;;;5073753;28;20315;-62
2024/04/23 01:35:27;;;;;;;0.00;0.00;;;2.80;99.90;;;;;;5060321;28;20011;-62
2024/04/23 01:37:56;;;;;;;0.10;0.10;;;2.80;99.90;;;;;;5076490;28;20485;-62
2024/04/23 01:40:22;;;;;;;0.00;0.00;;;2.80;99.90;;;;;;5080381;28;20464;-62
2024/04/23 01:42:50;;;;;;;0.00;0.00;;;2.70;98.00;;;;;;5085579;28;20055;-62
2024/04/23 01:45:16;;;;;;;0.00;0.00;;;2.60;67.40;;;;;;5067728;28;20011;-63
2024/04/23 01:47:44;;;;;;;0.08;0.08;;;2.50;53.50;;;;;;5079476;28;20043;-62
2024/04/23 01:50:10;;;;;;;0.00;0.00;;;2.50;48.40;;;;;;5068592;28;20090;-62
2024/04/23 01:52:36;;;;;;;0.03;0.03;;;2.40;33.60;;;;;;5068591;28;20629;-62
2024/04/23 01:55:03;;;;;;;0.00;0.00;;;2.30;46.20;;;;;;5045985;28;20018;-62
2024/04/23 01:57:29;;;;;;;0.00;0.00;;;2.30;79.80;;;;;;5097355;28;20024;-62
2024/04/23 02:00:01;;;;;;;0.00;0.00;;;2.20;99.90;;;;;;5072572;28;20007;-62
2024/04/23 02:02:27;;;;;;;0.05;0.05;;;2.20;99.90;;;;;;5076382;28;20014;-63
2024/04/23 02:04:53;;;;;;;0.00;0.00;;;2.20;99.90;;;;;;5067884;28;20010;-62
2024/04/23 02:07:19;;;;;;;0.00;0.00;;;2.20;99.90;;;;;;5069704;28;20023;-62
2024/04/23 02:09:47;;;;;;;0.00;0.00;;;2.20;99.90;;;;;;5082938;28;20361;-62
2024/04/23 02:12:14;;;;;;;0.00;0.00;;;2.20;99.90;;;;;;5077787;28;20025;-62
2024/04/23 02:14:42;;;;;;;0.00;0.00;;;2.20;99.90;;;;;;5068359;28;20482;-63
2024/04/23 02:17:28;;;;;;;0.00;0.00;;;2.20;99.90;;;;;;5045165;28;20021;-63
2024/04/23 02:19:54;;;;;;;0.00;0.00;;;2.10;99.90;;;;;;5070639;28;20007;-62
2024/04/23 02:22:21;;;;;;;0.05;0.05;;;2.10;99.90;;;;;;5069947;28;20007;-62
2024/04/23 02:24:46;;;;;;;0.00;0.00;;;2.00;99.90;;;;;;5046057;28;20018;-63
2024/04/23 02:27:30;;;;;;;0.00;0.00;;;2.00;99.90;;;;;;5075957;28;20334;-62
2024/04/23 02:29:56;;;;;;;0.00;0.00;;;1.90;99.90;;;;;;5076092;28;20014;-62
2024/04/23 02:32:22;;;;;;;0.00;0.00;;;2.00;99.90;;;;;;5086800;28;20021;-62
2024/04/23 02:34:48;;;;;;;0.00;0.00;;;2.00;99.90;;;;;;5078089;28;20030;-63
2024/04/23 02:37:14;;;;;;;0.00;0.00;;;1.90;99.90;;;;;;5074091;28;20021;-62
2024/04/23 02:39:39;;;;;;;0.00;0.00;;;2.00;99.90;;;;;;5077234;28;20018;-62
2024/04/23 02:42:05;;;;;;;0.00;0.00;;;1.90;99.90;;;;;;5087173;28;20014;-62
2024/04/23 02:44:31;;;;;;;0.10;0.10;;;2.00;99.90;;;;;;5096218;28;20023;-62
2024/04/23 02:46:57;;;;;;;0.00;0.00;;;2.00;99.90;;;;;;5074433;28;20002;-63
2024/04/23 02:49:23;;;;;;;0.00;0.00;;;1.90;99.90;;;;;;5079488;28;20025;-62
2024/04/23 02:52:09;;;;;;;0.00;0.00;;;2.00;99.90;;;;;;5050935;28;20464;-62
2024/04/23 02:54:35;;;;;;;0.00;0.00;;;2.00;99.90;;;;;;5074929;28;20438;-63
2024/04/23 02:57:01;;;;;;;0.10;0.10;;;2.00;99.90;;;;;;5078086;28;20043;-62
2024/04/23 02:59:26;;;;;;;0.00;0.00;;;2.00;99.90;;;;;;5080015;28;20006;-62
2024/04/23 03:02:06;;;;;;;0.00;0.00;;;2.00;99.90;;;;;;5078752;28;20075;-62
2024/04/23 03:04:33;;;;;;;0.00;0.00;;;2.00;99.90;;;;;;5074247;28;20006;-62
2024/04/23 03:06:59;;;;;;;0.00;0.00;;;2.00;99.90;;;;;;5083766;28;20007;-62
2024/04/23 03:09:45;;;;;;;0.00;0.00;;;2.00;99.90;;;;;;5062477;28;20006;-62
2024/04/23 03:12:10;;;;;;;0.00;0.00;;;2.10;99.90;;;;;;5086156;28;20006;-62
2024/04/23 03:14:37;;;;;;;0.00;0.00;;;2.10;99.90;;;;;;5073461;28;20006;-63
2024/04/23 03:17:02;;;;;;;0.00;0.00;;;2.20;99.90;;;;;;5074441;28;20416;-62
2024/04/23 03:19:48;;;;;;;0.00;0.00;;;2.20;99.90;;;;;;5050825;28;20397;-62
2024/04/23 03:22:14;;;;;;;0.00;0.00;;;2.20;99.90;;;;;;5085434;28;20326;-62
2024/04/23 03:24:42;;;;;;;0.00;0.00;;;2.30;99.90;;;;;;5078576;28;20025;-62
2024/04/23 03:27:08;;;;;;;0.00;0.00;;;2.30;99.90;;;;;;5105003;28;20006;-62
2024/04/23 03:29:33;;;;;;;0.00;0.00;;;2.30;99.90;;;;;;5078773;28;20079;-62
2024/04/23 03:32:01;;;;;;;0.00;0.00;;;2.30;99.90;;;;;;5086910;28;20018;-63
2024/04/23 03:34:44;;;;;;;0.00;0.00;;;2.30;99.90;;;;;;5088966;28;20011;-62
2024/04/23 03:37:10;;;;;;;0.55;0.10;;;2.30;99.90;;;;;;5072789;28;20002;-62
2024/04/23 03:39:56;;;;;;;0.00;0.00;;;2.40;99.90;;;;;;5047290;28;20417;-62
2024/04/23 03:42:22;;;;;;;0.00;0.00;;;2.40;99.90;;;;;;5069942;28;20160;-62
2024/04/23 03:44:47;;;;;;;0.00;0.00;;;2.40;99.90;;;;;;5055592;28;20024;-62
2024/04/23 03:47:13;;;;;;;0.00;0.00;;;2.40;99.90;;;;;;5070574;28;20018;-63
2024/04/23 03:49:59;;;;;;;0.00;0.00;;;2.50;99.90;;;;;;5051736;28;20446;-62
2024/04/23 03:52:28;;;;;;;0.00;0.00;;;2.50;99.90;;;;;;5075882;28;20022;-62
2024/04/23 03:55:00;;;;;;;0.10;0.10;;;2.50;99.90;;;;;;5088182;28;20014;-62
2024/04/23 03:57:26;;;;;;;0.03;0.03;;;2.50;99.90;;;;;;5077063;28;20014;-62
2024/04/23 04:00:12;;;;;;;0.00;0.00;;;2.60;99.90;;;;;;5047064;28;20011;-62
2024/04/23 04:08:21;;;;;;;0.00;0.00;;;2.80;99.90;;;;;;5077919;28;20006;-62
2024/04/23 04:11:07;;;;;;;0.00;0.00;;;2.80;99.90;;;;;;5026149;28;20162;-62
2024/04/23 04:13:33;;;;;;;0.00;0.00;;;2.80;99.90;;;;;;5075203;28;20084;-62
2024/04/23 04:15:59;;;;;;;0.00;0.00;;;2.80;99.90;;;;;;5091461;28;20022;-62
2024/04/23 04:18:45;;;;;;;0.00;0.00;;;2.80;99.90;;;;;;5067217;28;20010;-62
2024/04/23 04:21:12;;;;;;;0.00;0.00;;;2.90;99.90;;;;;;5068723;28;20392;-62
2024/04/23 04:23:37;;;;;;;0.00;0.00;;;2.90;99.90;;;;;;5078430;28;20025;-62
2024/04/23 04:26:04;;;;;;;0.00;0.00;;;2.80;99.90;;;;;;5076570;28;20025;-62
2024/04/23 04:28:30;;;;;;;0.05;0.05;;;2.90;99.90;;;;;;5079136;28;20002;-62
2024/04/23 04:30:56;;;;;;;0.00;0.00;;;2.80;99.90;;;;;;5078650;28;20014;-62
2024/04/23 04:33:22;;;;;;;0.03;0.00;;;2.90;99.90;;;;;;5080135;28;20021;-62
2024/04/23 04:35:47;;;;;;;0.10;0.10;;;2.90;99.90;;;;;;5079458;28;20014;-62
2024/04/23 04:38:13;;;;;;;0.00;0.00;;;2.90;99.90;;;;;;5077027;28;20030;-62
2024/04/23 04:40:40;;;;;;;0.00;0.00;;;2.90;99.90;;;;;;5071437;28;20025;-62
2024/04/23 04:43:06;;;;;;;0.00;0.00;;;2.90;99.90;;;;;;5074971;28;20031;-62
2024/04/23 04:45:31;;;;;;;0.00;0.00;;;2.90;99.90;;;;;;5075778;28;20014;-62
2024/04/23 04:47:57;;;;;;;0.00;0.00;;;2.90;99.90;;;;;;5077780;28;20015;-62
2024/04/23 04:50:23;;;;;;;0.00;0.00;;;2.90;99.90;;;;;;5079374;28;20015;-62
2024/04/23 04:52:49;;;;;;;0.00;0.00;;;3.00;99.90;;;;;;5067203;28;20610;-62
2024/04/23 04:55:15;;;;;;;0.00;0.00;;;3.10;99.90;;;;;;5063281;28;20366;-62
2024/04/23 04:57:41;;;;;;;0.00;0.00;;;3.10;99.90;;;;;;5074862;28;20006;-62
2024/04/23 05:00:07;;;;;;;0.00;0.00;;;3.10;99.90;;;;;;5074864;28;20326;-62
2024/04/23 05:02:33;;;;;;;0.03;0.03;;;3.20;99.90;;;;;;5080424;28;20413;-62
2024/04/23 05:04:59;;;;;;;0.00;0.00;;;3.20;99.90;;;;;;5078898;28;20014;-62
2024/04/23 05:07:25;;;;;;;0.03;0.03;;;3.30;99.90;;;;;;5075776;28;20006;-62
2024/04/23 05:09:51;;;;;;;0.03;0.03;;;3.30;99.90;;;;;;5085326;28;20025;-62
2024/04/23 05:12:16;;;;;;;0.30;0.00;;;3.40;99.90;;;;;;5051421;28;20014;-62
2024/04/23 05:14:42;;;;;;;0.00;0.00;;;3.50;99.90;;;;;;5088859;28;20035;-62
2024/04/23 05:17:08;;;;;;;0.00;0.00;;;3.50;99.90;;;;;;5081552;28;20014;-62
2024/04/23 05:19:34;;;;;;;0.00;0.00;;;3.60;99.90;;;;;;5042595;28;20395;-62
2024/04/23 05:22:00;;;;;;;0.17;0.05;;;3.70;99.90;;;;;;5072879;28;20484;-62
2024/04/23 05:24:25;;;;;;;0.00;0.00;;;3.70;99.90;;;;;;5070602;28;20003;-62
2024/04/23 05:26:52;;;;;;;0.00;0.00;;;3.80;99.90;;;;;;5085270;28;20448;-62
2024/04/23 05:29:18;;;;;;;0.00;0.00;;;3.90;99.90;;;;;;5072686;28;20006;-62
2024/04/23 05:34:28;;;;;;;0.00;0.00;;;4.00;99.90;;;;;;5075473;28;20013;-62
2024/04/23 05:36:54;;;;;;;0.00;0.00;;;4.20;99.90;;;;;;5074269;28;20014;-62
2024/04/23 05:39:21;;;;;;;0.00;0.00;;;4.20;99.90;;;;;;5078996;28;20547;-62
2024/04/23 05:41:46;;;;;;;0.15;0.15;;;4.20;99.90;;;;;;5084061;28;20028;-62
2024/04/23 05:44:12;;;;;;;0.20;0.20;;;4.30;99.90;;;;;;5076425;28;20376;-62
2024/04/23 05:46:38;;;;;;;0.10;0.10;;;4.30;99.90;;;;;;5072297;28;20038;-62
2024/04/23 05:49:41;;;;;;;0.73;0.00;;;4.30;99.90;;;;;;5096655;28;20037;-62
2024/04/23 05:52:45;;;;;;;0.00;0.00;;;4.40;99.90;;;;;;5090756;28;20014;-62
2024/04/23 05:55:40;;;;;;;0.00;0.00;;;4.40;99.90;;;;;;5068044;28;20463;-62
2024/04/23 05:58:07;;;;;;;0.10;0.10;;;4.50;99.90;;;;;;5071050;28;20013;-62
2024/04/23 06:00:35;;;;;;;0.00;0.00;;;4.50;99.90;;;;;;5060390;28;20392;-62
2024/04/23 06:03:01;;;;;;;0.10;0.10;;;4.70;99.90;;;;;;5072164;28;20348;-62
2024/04/23 06:05:27;;;;;;;0.00;0.00;;;4.70;99.90;;;;;;5077820;28;20422;-62
2024/04/23 06:07:53;;;;;;;0.00;0.00;;;4.80;99.90;;;;;;5057113;28;20025;-62
2024/04/23 06:10:20;;;;;;;0.00;0.00;;;4.90;99.90;;;;;;5072380;28;20542;-62
2024/04/23 06:12:46;;;;;;;0.00;0.00;;;5.00;99.90;;;;;;5079383;28;20080;-62
2024/04/23 06:15:12;;;;;;;0.00;0.00;;;5.00;99.90;;;;;;5080024;28;20027;-62
2024/04/23 06:17:38;;;;;;;0.00;0.00;;;5.20;99.90;;;;;;5069388;28;20507;-62
2024/04/23 06:20:05;;;;;;;0.00;0.00;;;5.20;90.80;;;;;;5074880;28;20002;-62
2024/04/23 06:22:35;;;;;;;0.00;0.00;;;5.30;56.20;;;;;;5083309;28;20085;-62
2024/04/23 06:25:03;;;;;;;0.00;0.00;;;5.40;12.50;;;;;;5051020;28;20079;-62
2024/04/23 06:27:31;;;;;;;0.00;0.00;;;5.50;1.00;;;;;;5068755;28;20757;-62
2024/04/23 06:30:07;;;;;;;0.10;0.10;;;5.60;1.00;;;;;;5071356;28;20107;-62
2024/04/23 06:32:35;;;;;;;0.00;0.00;;;5.60;1.00;;;;;;5070324;28;20552;-62
2024/04/23 06:35:01;;;;;;;0.00;0.00;;;5.70;1.00;;;;;;5068686;28;20011;-62
2024/04/23 06:37:27;;;;;;;0.00;0.00;;;5.80;1.00;;;;;;5075302;28;20018;-62
2024/04/23 06:39:54;;;;;;;0.08;0.08;;;5.70;99.90;;;;;;5078572;28;20013;-62
2024/04/23 06:42:19;;;;;;;0.00;0.00;;;5.80;99.90;;;;;;5074601;28;20014;-62
2024/04/23 06:44:45;;;;;;;0.08;0.08;;;5.80;99.90;;;;;;5078034;28;20030;-62
2024/04/23 06:47:11;;;;;;;0.00;0.00;;;5.80;99.90;;;;;;5081071;28;20107;-62
2024/04/23 06:49:37;;;;;;;0.10;0.10;;;6.00;99.90;;;;;;5077594;28;20018;-62
2024/04/23 06:52:04;;;;;;;0.00;0.00;;;6.10;99.90;;;;;;5069379;28;20014;-62
2024/04/23 06:54:29;;;;;;;0.00;0.00;;;6.20;99.90;;;;;;5071044;28;20018;-62
2024/04/23 06:56:55;;;;;;;0.00;0.00;;;6.20;99.90;;;;;;5068062;28;20025;-62
2024/04/23 06:59:21;;;;;;;0.00;0.00;;;6.10;99.90;;;;;;5078682;28;20061;-62
2024/04/23 07:01:47;;;;;;;0.05;0.05;;;6.00;99.90;;;;;;5069867;28;20090;-63
2024/04/23 07:04:13;;;;;;;0.00;0.00;;;6.20;99.90;;;;;;5071446;28;20022;-62
2024/04/23 07:06:39;;;;;;;0.08;0.08;;;6.40;99.90;;;;;;5087310;28;20032;-62
2024/04/23 07:09:06;;;;;;;0.08;0.08;;;6.80;99.90;;;;;;5070144;28;20021;-62
2024/04/23 07:11:32;;;;;;;0.00;0.00;;;7.10;99.90;;;;;;5088477;28;20537;-62
2024/04/23 07:13:58;;;;;;;0.00;0.00;;;7.50;99.90;;;;;;5079306;28;20099;-62
2024/04/23 07:16:24;;;;;;;0.00;0.00;;;7.90;99.90;;;;;;5094269;28;20464;-62
2024/04/23 07:18:50;;;;;;;0.10;0.10;;;8.20;99.90;;;;;;5085750;28;20003;-62
2024/04/23 07:21:16;;;;;;;0.00;0.00;;;8.60;99.90;;;;;;5088259;28;20024;-62
2024/04/23 07:23:43;;;;;;;0.10;0.10;;;8.90;99.90;;;;;;5074873;28;20022;-62
2024/04/23 07:26:09;;;;;;;0.00;0.00;;;9.20;99.90;;;;;;5077158;28;20052;-62
2024/04/23 07:28:35;;;;;;;0.00;0.00;;;9.40;99.90;;;;;;5072885;28;20011;-63
2024/04/23 07:31:01;;;;;;;0.10;0.10;;;9.60;99.90;;;;;;5077921;28;20015;-62
2024/04/23 07:33:27;;;;;;;0.00;0.00;;;9.60;1.00;;;;;;5076306;28;20459;-62
2024/04/23 07:35:53;;;;;;;0.10;0.03;;;9.70;1.00;;;;;;5071874;28;20069;-62
2024/04/23 07:38:19;;;;;;;0.00;0.00;;;9.70;1.00;;;;;;5071636;28;20082;-62
2024/04/23 07:40:46;;;;;;;0.17;0.17;;;9.80;1.00;;;;;;5077247;28;20005;-62
2024/04/23 07:43:14;;;;;;;0.05;0.05;;;9.90;1.00;;;;;;5073507;28;20010;-63
2024/04/23 07:45:40;;;;;;;0.10;0.10;;;10.00;1.00;;;;;;5088151;28;20066;-62
2024/04/23 07:48:06;;;;;;;0.15;0.13;;;10.20;1.00;;;;;;5073221;28;20082;-62
2024/04/23 07:50:33;;;;;;;0.08;0.08;;;10.40;1.00;;;;;;5084875;28;20003;-63
2024/04/23 07:53:04;;;;;;;0.00;0.00;;;10.50;1.00;;;;;;5082556;28;20014;-62
2024/04/23 07:55:30;;;;;;;0.00;0.00;;;10.60;1.00;;;;;;5069134;28;20010;-62
2024/04/23 07:57:56;;;;;;;0.22;0.17;;;10.70;99.90;;;;;;5082645;28;20011;-62
2024/04/23 08:00:24;;;;;;;0.20;0.20;;;10.80;1.00;;;;;;5075112;28;20683;-62
2024/04/23 08:02:54;;;;;;;0.05;0.05;;;10.90;1.00;;;;;;5070759;28;20014;-62
2024/04/23 08:05:20;;;;;;;0.10;0.10;;;11.10;99.90;;;;;;5070002;28;20402;-62
2024/04/23 08:07:46;;;;;;;0.00;0.00;;;11.00;99.90;;;;;;5071070;28;20043;-63
2024/04/23 08:10:17;;;;;;;0.10;0.10;;;11.00;99.90;;;;;;5080069;28;20468;-62
2024/04/23 08:12:44;;;;;;;0.20;0.13;;;11.10;1.00;;;;;;5043302;28;20091;-63
2024/04/23 08:15:10;;;;;;;0.10;0.10;;;11.20;99.90;;;;;;5068893;28;20775;-62
2024/04/23 08:17:36;;;;;;;0.10;0.10;;;11.30;1.00;;;;;;5083454;28;20006;-62
2024/04/23 08:20:03;;;;;;;0.47;0.30;;;11.40;99.90;;;;;;5079960;28;20338;-62
2024/04/23 08:22:29;;;;;;;0.17;0.17;;;11.40;99.90;;;;;;5075370;28;20347;-62
2024/04/23 08:24:55;;;;;;;0.10;0.10;;;11.30;99.90;;;;;;5084777;28;20007;-62
2024/04/23 08:27:20;;;;;;;0.10;0.10;;;11.30;99.90;;;;;;5072419;28;20469;-62
2024/04/23 08:29:47;;;;;;;0.22;0.22;;;11.20;99.90;;;;;;5071050;28;20686;-62
2024/04/23 08:32:16;;;;;;;0.30;0.30;;;11.20;99.90;;;;;;5084226;28;20100;-62
2024/04/23 08:34:43;;;;;;;0.10;0.10;;;11.30;99.90;;;;;;5075491;28;20006;-63
2024/04/23 08:37:09;;;;;;;0.70;0.30;;;11.40;99.90;;;;;;5079186;28;20398;-62
2024/04/23 08:39:36;;;;;;;0.08;0.08;;;11.60;99.90;;;;;;5075498;28;20007;-63
2024/04/23 08:42:02;;;;;;;0.40;0.28;;;11.70;99.90;;;;;;5052347;28;20018;-63
2024/04/23 08:44:30;;;;;;;0.13;0.13;;;11.70;99.90;;;;;;5069407;28;20326;-63
2024/04/23 08:46:56;;;;;;;0.20;0.20;;;11.40;99.90;;;;;;5075876;28;20006;-62
2024/04/23 08:49:24;;;;;;;0.03;0.03;;;11.40;99.90;;;;;;5080930;28;20006;-62
2024/04/23 08:51:50;;;;;;;0.08;0.08;;;11.50;99.90;;;;;;5093507;28;20055;-63
2024/04/23 08:54:16;;;;;;;0.20;0.20;;;11.50;99.90;;;;;;5084022;28;20044;-63
2024/04/23 08:56:45;;;;;;;0.17;0.17;;;11.60;99.90;;;;;;5077790;28;20026;-63
2024/04/23 08:59:18;;;;;;;0.10;0.10;;;11.70;99.90;;;;;;5060135;28;20018;-62
2024/04/23 09:01:49;;;;;;;0.22;0.22;;;11.70;99.90;;;;;;5085948;28;20033;-63
2024/04/23 09:04:15;;;;;;;0.22;0.10;;;11.80;99.90;;;;;;5078709;28;20082;-63
2024/04/23 09:06:43;;;;;;;0.10;0.10;;;12.00;99.90;;;;;;5081461;28;20022;-62
2024/04/23 09:09:11;;;;;;;0.10;0.10;;;12.20;99.90;;;;;;5065601;28;22553;-63
2024/04/23 09:11:37;;;;;;;0.03;0.03;;;12.10;99.90;;;;;;5073901;28;20015;-63
2024/04/23 09:14:03;;;;;;;0.10;0.10;;;12.00;99.90;;;;;;5077493;28;20010;-63
2024/04/23 09:16:29;;;;;;;0.00;0.00;;;12.10;99.90;;;;;;5083697;28;20045;-63
2024/04/23 09:18:55;;;;;;;0.10;0.10;;;12.40;99.90;;;;;;5082050;28;20020;-63
2024/04/23 09:21:22;;;;;;;0.10;0.10;;;12.60;99.90;;;;;;5079223;28;20020;-63
2024/04/23 09:23:49;;;;;;;0.17;0.17;;;12.70;99.90;;;;;;5070085;28;20552;-63
2024/04/23 09:26:16;;;;;;;0.30;0.30;;;12.80;99.90;;;;;;5069660;28;20090;-62
2024/04/23 09:28:44;;;;;;;0.10;0.10;;;12.70;99.90;;;;;;5076446;28;20003;-63
2024/04/23 09:31:15;;;;;;;0.20;0.20;;;12.80;99.90;;;;;;5063408;28;20010;-62
2024/04/23 09:33:59;;;;;;;0.30;0.20;;;12.80;99.90;;;;;;5086511;28;20589;-63
2024/04/23 09:36:27;;;;;;;0.32;0.30;;;13.00;99.90;;;;;;5052134;28;20492;-63
2024/04/23 09:39:03;;;;;;;0.30;0.30;;;12.80;99.90;;;;;;5077466;28;20021;-63
2024/04/23 09:41:31;;;;;;;0.28;0.28;;;12.30;99.90;;;;;;5079626;28;20014;-63
2024/04/23 09:44:04;;;;;;;0.10;0.10;;;11.80;99.90;;;;;;5075637;28;20007;-63
2024/04/23 09:46:31;;;;;;;0.10;0.10;;;11.50;99.90;;;;;;5070972;28;20425;-63
2024/04/23 09:48:59;;;;;;;0.40;0.40;;;11.30;99.90;;;;;;5069214;28;20013;-63
2024/04/23 09:51:29;;;;;;;0.68;0.10;;;11.20;99.90;;;;;;5073075;28;20029;-63
2024/04/23 09:53:59;;;;;;;0.05;0.05;;;11.40;99.90;;;;;;5084861;28;20006;-63
2024/04/23 09:56:25;;;;;;;0.10;0.10;;;11.70;99.90;;;;;;5075085;28;20018;-64
2024/04/23 09:58:51;;;;;;;0.10;0.10;;;12.00;99.90;;;;;;5078803;28;20014;-63
2024/04/23 10:01:19;;;;;;;0.00;0.00;;;11.70;99.90;;;;;;5017317;28;20459;-63
2024/04/23 10:03:47;;;;;;;0.00;0.00;;;11.50;99.90;;;;;;5054202;28;20350;-64
2024/04/23 10:06:36;;;;;;;0.10;0.10;;;11.10;99.90;;;;;;5046703;28;20026;-63
2024/04/23 10:09:12;;;;;;;0.00;0.00;;;10.70;99.90;;;;;;5039273;28;20015;-63
2024/04/23 10:11:49;;;;;;;0.10;0.10;;;10.80;99.90;;;;;;5043943;28;20007;-63
2024/04/23 10:14:20;;;;;;;0.15;0.15;;;11.20;99.90;;;;;;5037623;28;20435;-63
2024/04/23 10:16:58;;;;;;;0.10;0.10;;;11.50;99.90;;;;;;5057008;28;20469;-63
2024/04/23 10:19:28;;;;;;;0.00;0.00;;;11.90;99.90;;;;;;5051075;28;20008;-63
2024/04/23 10:21:54;;;;;;;0.10;0.10;;;11.90;99.90;;;;;;5043142;28;20394;-64
2024/04/23 10:24:22;;;;;;;0.00;0.00;;;12.00;99.90;;;;;;5040560;28;20007;-63
2024/04/23 10:26:48;;;;;;;0.10;0.10;;;12.10;99.90;;;;;;5044864;28;20035;-63
2024/04/23 10:29:15;;;;;;;0.20;0.20;;;12.30;99.90;;;;;;5039358;28;20039;-63
2024/04/23 10:31:42;;;;;;;0.10;0.10;;;12.60;99.90;;;;;;5041246;28;20011;-63
2024/04/23 10:34:11;;;;;;;0.10;0.10;;;12.70;99.90;;;;;;5037609;28;20015;-64
2024/04/23 10:36:38;;;;;;;0.10;0.10;;;12.40;99.90;;;;;;5038383;28;20550;-64
2024/04/23 10:39:06;;;;;;;0.10;0.10;;;11.60;99.90;;;;;;5014051;28;20004;-63
2024/04/23 10:41:37;;;;;;;0.10;0.10;;;11.10;99.90;;;;;;5036940;28;20015;-64
2024/04/23 10:44:07;;;;;;;0.20;0.20;;;10.60;99.90;;;;;;5032382;28;20026;-63
2024/04/23 10:46:33;;;;;;;;;;;10.30;99.90;;;;;;5039881;28;20092;-63
2024/04/23 10:49:15;;;;;;;0.10;0.10;;;10.00;99.90;;;;;;5042738;28;20920;-63
2024/04/23 10:51:45;;;;;;;0.08;0.08;;;9.90;99.90;;;;;;5043916;28;20014;-63
2024/04/23 10:54:21;;;;;;;0.00;0.00;;;10.10;99.90;;;;;;4994478;28;20578;-63
2024/04/23 10:57:02;;;;;;;0.00;0.00;;;10.10;99.90;;;;;;5046593;28;20029;-63
2024/04/23 10:59:31;;;;;;;0.00;0.00;;;10.20;99.90;;;;;;5055574;28;20091;-63
2024/04/23 11:02:02;;;;;;;0.00;0.00;;;10.20;99.90;;;;;;5077247;28;20292;-63
2024/04/23 11:04:47;;;;;;;0.00;0.00;;;10.30;99.90;;;;;;5071324;28;20244;-63
2024/04/23 11:07:27;;;;;;;0.00;0.00;;;10.70;99.90;;;;;;5083775;28;20465;-63
2024/04/23 11:10:00;;;;;;;0.10;0.10;;;10.90;99.90;;;;;;5083323;28;20568;-63
2024/04/23 11:12:26;;;;;;;0.00;0.00;;;11.20;99.90;;;;;;5069935;28;20015;-63
2024/04/23 11:14:53;;;;;;;0.00;0.00;;;11.40;99.90;;;;;;5080759;28;20893;-63
2024/04/23 11:17:20;;;;;;;0.00;0.00;;;11.60;99.90;;;;;;5071125;28;20046;-63
2024/04/23 11:19:55;;;;;;;0.10;0.10;;;11.80;99.90;;;;;;5095482;28;20025;-62
2024/04/23 11:22:43;;;;;;;0.10;0.10;;;11.80;99.90;;;;;;5059421;28;20302;-63
2024/04/23 11:25:17;;;;;;;0.00;0.00;;;12.00;99.90;;;;;;5063026;28;20043;-63
2024/04/23 11:27:44;;;;;;;0.13;0.13;;;11.90;99.90;;;;;;5064420;28;20014;-63
2024/04/23 11:30:19;;;;;;;0.10;0.10;;;11.80;99.90;;;;;;5056376;28;20010;-63
2024/04/23 11:32:47;;;;;;;0.05;0.00;;;11.50;99.90;;;;;;5061242;28;20022;-63
2024/04/23 11:35:13;;;;;;;0.10;0.10;;;11.30;99.90;;;;;;5074057;28;20006;-64
2024/04/23 11:37:40;;;;;;;0.10;0.10;;;11.50;99.90;;;;;;5070029;28;20473;-63
2024/04/23 11:40:06;;;;;;;0.10;0.10;;;11.70;99.90;;;;;;5079847;28;20002;-63
2024/04/23 11:42:33;;;;;;;0.20;0.10;;;11.80;99.90;;;;;;5070121;28;20026;-64
2024/04/23 11:45:05;;;;;;;0.32;0.10;;;11.50;99.90;;;;;;5080189;28;20014;-63
2024/04/23 11:47:33;;;;;;;0.08;0.05;;;11.40;99.90;;;;;;5078186;28;20022;-63
2024/04/23 11:50:05;;;;;;;0.10;0.00;;;11.40;99.90;;;;;;5076423;28;20057;-63
2024/04/23 11:52:31;;;;;;;0.10;0.10;;;11.50;99.90;;;;;;5080394;28;20068;-63
2024/04/23 11:54:58;;;;;;;0.10;0.10;;;11.70;99.90;;;;;;5089262;28;20466;-63
2024/04/23 11:57:24;;;;;;;0.10;0.10;;;11.80;99.90;;;;;;5085456;28;20006;-63
2024/04/23 11:59:50;;;;;;;0.00;0.00;;;12.00;99.90;;;;;;5083805;28;20006;-63
2024/04/23 12:02:17;;;;;;;0.10;0.10;;;12.00;99.90;;;;;;5092293;28;20017;-64
2024/04/23 12:04:45;;;;;;;0.15;0.15;;;11.90;99.90;;;;;;5079173;28;20433;-63
2024/04/23 12:07:12;;;;;;;0.20;0.10;;;11.60;99.90;;;;;;5081890;28;20007;-63
2024/04/23 12:09:55;;;;;;;0.00;0.00;;;11.40;99.90;;;;;;5077370;28;20035;-63
2024/04/23 12:12:24;;;;;;;0.00;0.00;;;11.40;99.90;;;;;;5088090;28;20115;-63
2024/04/23 12:14:50;;;;;;;0.00;0.00;;;11.40;99.90;;;;;;5071055;28;20014;-63
2024/04/23 12:17:16;;;;;;;0.20;0.00;;;11.70;99.90;;;;;;5082830;28;20015;-63
2024/04/23 12:19:44;;;;;;;0.00;0.00;;;12.00;99.90;;;;;;5089065;28;20408;-63
2024/04/23 12:22:17;;;;;;;0.05;0.05;;;12.40;99.90;;;;;;5095311;28;20029;-64
2024/04/23 12:24:43;;;;;;;0.00;0.00;;;12.80;99.90;;;;;;5075786;28;20433;-63
2024/04/23 12:27:22;;;;;;;0.10;0.10;;;12.70;99.90;;;;;;5071644;28;20011;-63
2024/04/23 12:29:48;;;;;;;0.00;0.00;;;12.60;99.90;;;;;;5077126;28;20451;-63
2024/04/23 12:32:14;;;;;;;0.10;0.10;;;12.50;99.90;;;;;;5062264;28;20013;-63
2024/04/23 12:34:47;;;;;;;0.00;0.00;;;12.20;99.90;;;;;;5078887;28;20547;-63
2024/04/23 12:37:20;;;;;;;0.10;0.10;;;12.20;99.90;;;;;;5081170;28;20371;-63
2024/04/23 12:39:46;;;;;;;0.10;0.10;;;12.20;99.90;;;;;;5082029;28;20030;-63
2024/04/23 12:42:13;;;;;;;0.10;0.00;;;12.20;99.90;;;;;;5070000;28;20091;-63
2024/04/23 12:44:39;;;;;;;1.00;0.10;;;12.30;99.90;;;;;;5044071;28;20005;-64
2024/04/23 12:47:07;;;;;;;0.00;0.00;;;12.40;99.90;;;;;;5050465;28;20054;-63
2024/04/23 12:49:37;;;;;;;0.05;0.05;;;12.30;99.90;;;;;;5079407;28;20010;-63
2024/04/23 12:52:03;;;;;;;0.10;0.10;;;12.40;99.90;;;;;;5069735;28;20006;-63
2024/04/23 12:54:30;;;;;;;0.10;0.10;;;12.60;99.90;;;;;;5077220;28;20051;-63
2024/04/23 12:56:56;;;;;;;0.00;0.00;;;12.70;99.90;;;;;;5068447;28;20030;-63
2024/04/23 12:59:22;;;;;;;0.32;0.20;;;12.60;99.90;;;;;;5076846;28;20564;-64
2024/04/23 13:02:12;;;;;;;0.10;0.10;;;12.50;99.90;;;;;;5051229;28;20010;-62
2024/04/23 13:04:38;;;;;;;0.00;0.00;;;12.20;99.90;;;;;;5113710;22;20031;-63
2024/04/23 13:07:04;;;;;;;0.32;0.00;;;12.10;99.90;;;;;;5099750;27;20014;-63
2024/04/23 13:09:32;;;;;;;0.10;0.10;;;12.00;99.90;;;;;;5096993;27;20018;-64